createdAt,value
2023-03-22T00:00:58.577Z,12.48
2023-03-22T00:03:26.316Z,12.58
2023-03-22T00:05:59.436Z,12.49
2023-03-22T00:08:27.097Z,12.39
2023-03-22T00:10:54.723Z,12.47
2023-03-22T00:13:22.456Z,12.44
2023-03-22T00:15:50.204Z,12.47
2023-03-22T00:18:19.054Z,12.48
2023-03-22T00:20:50.267Z,12.54
2023-03-22T00:23:19.736Z,12.50
2023-03-22T00:25:48.571Z,12.47
2023-03-22T00:28:17.248Z,12.41
2023-03-22T00:30:51.797Z,12.39
2023-03-22T00:33:19.500Z,12.45
2023-03-22T00:35:50.157Z,12.41
2023-03-22T00:38:20.625Z,12.50
2023-03-22T00:40:49.611Z,12.56
2023-03-22T00:43:17.563Z,12.61
2023-03-22T00:45:45.422Z,12.71
2023-03-22T00:48:13.244Z,12.75
2023-03-22T00:50:41.705Z,12.79
2023-03-22T00:53:09.360Z,12.78
2023-03-22T00:55:38.361Z,12.69
2023-03-22T00:58:06.031Z,12.71
2023-03-22T01:00:33.773Z,12.65
2023-03-22T01:03:04.078Z,12.64
2023-03-22T01:05:33.249Z,12.69
2023-03-22T01:08:02.717Z,12.70
2023-03-22T01:10:30.384Z,12.68
2023-03-22T01:12:59.503Z,12.74
2023-03-22T01:15:27.476Z,12.71
2023-03-22T01:17:55.159Z,12.58
2023-03-22T01:20:22.873Z,12.50
2023-03-22T01:22:50.516Z,12.59
2023-03-22T01:25:18.731Z,12.62
2023-03-22T01:27:46.420Z,12.67
2023-03-22T01:30:16.099Z,12.59
2023-03-22T01:32:43.972Z,12.53
2023-03-22T01:35:11.987Z,12.52
2023-03-22T01:37:39.681Z,12.43
2023-03-22T01:40:08.782Z,12.33
2023-03-22T01:42:36.397Z,12.20
2023-03-22T01:45:37.467Z,12.20
2023-03-22T01:48:10.541Z,12.30
2023-03-22T01:50:42.467Z,12.32
2023-03-22T01:53:13.756Z,12.34
2023-03-22T01:55:42.405Z,12.32
2023-03-22T01:58:10.338Z,12.34
2023-03-22T02:00:39.545Z,12.37
2023-03-22T02:03:07.630Z,12.30
2023-03-22T02:05:36.899Z,12.17
2023-03-22T02:08:05.522Z,12.10
2023-03-22T02:10:33.215Z,12.15
2023-03-22T02:13:30.259Z,12.21
2023-03-22T02:16:10.108Z,12.33
2023-03-22T02:18:50.044Z,12.42
2023-03-22T02:21:39.832Z,12.40
2023-03-22T02:24:45.313Z,12.40
2023-03-22T02:27:40.090Z,12.38
2023-03-22T02:30:24.896Z,12.38
2023-03-22T02:33:32.038Z,12.45
2023-03-22T02:36:22.319Z,12.48
2023-03-22T02:39:12.522Z,12.44
2023-03-22T02:42:05.062Z,12.47
2023-03-22T02:44:41.449Z,12.51
2023-03-22T02:47:16.982Z,12.58
2023-03-22T02:49:51.110Z,12.66
2023-03-22T02:52:26.265Z,12.61
2023-03-22T02:55:02.179Z,12.56
2023-03-22T02:57:34.479Z,12.55
2023-03-22T03:00:08.039Z,12.47
2023-03-22T03:02:36.523Z,12.48
2023-03-22T03:05:04.871Z,12.42
2023-03-22T03:07:32.731Z,12.41
2023-03-22T03:10:02.023Z,12.35
2023-03-22T03:12:30.287Z,12.34
2023-03-22T03:14:58.377Z,12.37
2023-03-22T03:17:48.556Z,12.30
2023-03-22T03:20:30.173Z,12.29
2023-03-22T03:23:15.511Z,12.25
2023-03-22T03:25:50.069Z,12.30
2023-03-22T03:28:30.415Z,12.24
2023-03-22T03:31:02.065Z,12.12
2023-03-22T03:33:34.378Z,12.09
2023-03-22T03:36:06.239Z,12.09
2023-03-22T03:38:37.365Z,12.03
2023-03-22T03:41:11.018Z,11.97
2023-03-22T03:43:40.445Z,11.89
2023-03-22T03:46:09.602Z,11.91
2023-03-22T03:48:39.746Z,11.86
2023-03-22T03:51:08.092Z,11.80
2023-03-22T03:53:35.788Z,11.73
2023-03-22T03:56:03.554Z,11.66
2023-03-22T03:58:32.593Z,11.56
2023-03-22T04:01:00.427Z,11.53
2023-03-22T04:03:28.091Z,11.49
2023-03-22T04:05:55.946Z,11.46
2023-03-22T04:08:23.677Z,11.46
2023-03-22T04:10:52.094Z,11.48
2023-03-22T04:13:21.473Z,11.56
2023-03-22T04:15:53.858Z,11.61
2023-03-22T04:18:21.984Z,11.56
2023-03-22T04:20:53.421Z,11.58
2023-03-22T04:23:22.646Z,11.48
2023-03-22T04:25:50.864Z,11.42
2023-03-22T04:28:19.770Z,11.49
2023-03-22T04:30:51.015Z,11.53
2023-03-22T04:33:22.727Z,11.63
2023-03-22T04:35:56.614Z,11.53
2023-03-22T04:38:25.159Z,11.47
2023-03-22T04:40:52.904Z,11.48
2023-03-22T04:43:22.964Z,11.44
2023-03-22T04:45:50.846Z,11.35
2023-03-22T04:48:22.288Z,11.38
2023-03-22T04:50:53.285Z,11.36
2023-03-22T04:53:27.108Z,11.37
2023-03-22T04:55:56.865Z,11.36
2023-03-22T04:58:25.141Z,11.32
2023-03-22T05:00:53.801Z,11.24
2023-03-22T05:03:23.697Z,11.17
2023-03-22T05:05:52.639Z,11.10
2023-03-22T05:08:21.088Z,11.11
2023-03-22T05:10:48.968Z,11.09
2023-03-22T05:13:16.639Z,11.12
2023-03-22T05:15:44.515Z,11.11
2023-03-22T05:18:14.398Z,11.08
2023-03-22T05:20:43.904Z,11.04
2023-03-22T05:23:11.655Z,10.96
2023-03-22T05:25:39.340Z,10.90
2023-03-22T05:28:07.362Z,10.92
2023-03-22T05:30:35.158Z,10.92
2023-03-22T05:33:05.045Z,10.89
2023-03-22T05:35:34.660Z,10.88
2023-03-22T05:38:04.200Z,10.90
2023-03-22T05:40:32.165Z,11.00
2023-03-22T05:42:59.953Z,11.02
2023-03-22T05:45:28.050Z,11.02
2023-03-22T05:47:55.865Z,11.06
2023-03-22T05:50:24.565Z,11.15
2023-03-22T05:52:53.412Z,11.14
2023-03-22T05:55:23.240Z,11.20
2023-03-22T05:57:52.704Z,11.23
2023-03-22T06:00:21.886Z,11.18
2023-03-22T06:02:52.234Z,11.07
2023-03-22T06:05:21.121Z,10.97
2023-03-22T06:07:49.108Z,11.02
2023-03-22T06:10:17.716Z,10.96
2023-03-22T06:12:46.832Z,10.80
2023-03-22T06:15:14.570Z,10.71
2023-03-22T06:17:43.012Z,10.69
2023-03-22T06:20:13.249Z,10.70
2023-03-22T06:22:41.488Z,10.66
2023-03-22T06:25:10.981Z,10.61
2023-03-22T06:27:39.162Z,10.60
2023-03-22T06:30:10.430Z,10.57
2023-03-22T06:32:38.211Z,10.59
2023-03-22T06:35:06.865Z,10.63
2023-03-22T06:37:34.626Z,10.63
2023-03-22T06:40:02.329Z,10.63
2023-03-22T06:42:30.942Z,10.67
2023-03-22T06:44:58.703Z,10.69
2023-03-22T06:47:27.793Z,10.75
2023-03-22T06:49:55.557Z,10.77
2023-03-22T06:52:23.438Z,10.84
2023-03-22T06:54:51.250Z,10.91
2023-03-22T06:57:19.374Z,11.08
2023-03-22T06:59:47.105Z,11.15
2023-03-22T07:02:14.974Z,11.16
2023-03-22T07:04:44.738Z,11.20
2023-03-22T07:07:12.596Z,11.24
2023-03-22T07:09:40.682Z,11.38
2023-03-22T07:12:08.631Z,11.42
2023-03-22T07:14:36.900Z,11.43
2023-03-22T07:17:04.721Z,11.52
2023-03-22T07:19:32.542Z,11.53
2023-03-22T07:22:01.693Z,11.66
2023-03-22T07:24:29.359Z,11.75
2023-03-22T07:26:57.302Z,11.93
2023-03-22T07:29:24.997Z,12.17
2023-03-22T07:31:52.794Z,12.24
2023-03-22T07:34:20.641Z,12.25
2023-03-22T07:36:48.417Z,12.42
2023-03-22T07:39:17.533Z,12.50
2023-03-22T07:41:45.413Z,12.61
2023-03-22T07:44:18.026Z,12.73
2023-03-22T07:46:46.929Z,12.74
2023-03-22T07:49:15.602Z,12.79
2023-03-22T07:51:43.479Z,12.91
2023-03-22T07:54:14.014Z,13.05
2023-03-22T07:56:48.374Z,13.14
2023-03-22T07:59:16.691Z,13.30
2023-03-22T08:01:44.710Z,13.47
2023-03-22T08:04:12.504Z,13.60
2023-03-22T08:06:42.738Z,13.62
2023-03-22T08:09:10.455Z,13.82
2023-03-22T08:11:38.209Z,13.99
2023-03-22T08:14:07.509Z,14.11
2023-03-22T08:16:35.352Z,14.40
2023-03-22T08:19:03.257Z,14.44
2023-03-22T08:21:31.463Z,14.61
2023-03-22T08:23:59.253Z,14.87
2023-03-22T08:26:27.310Z,15.30
2023-03-22T08:28:55.093Z,15.60
2023-03-22T08:31:24.385Z,16.50
2023-03-22T08:33:52.083Z,18.42
2023-03-22T08:36:22.708Z,19.24
2023-03-22T08:38:50.636Z,19.18
2023-03-22T08:41:18.399Z,18.77
2023-03-22T08:43:46.083Z,18.17
2023-03-22T08:46:13.895Z,17.71
2023-03-22T08:48:50.496Z,17.22
2023-03-22T08:51:19.310Z,16.58
2023-03-22T08:53:47.284Z,16.35
2023-03-22T08:56:16.596Z,16.22
2023-03-22T08:58:46.668Z,16.28
2023-03-22T09:01:15.195Z,16.34
2023-03-22T09:03:44.842Z,16.48
2023-03-22T09:06:12.589Z,16.98
2023-03-22T09:08:41.283Z,17.00
2023-03-22T09:11:10.764Z,17.82
2023-03-22T09:13:38.941Z,18.59
2023-03-22T09:16:09.439Z,18.87
2023-03-22T09:18:37.834Z,20.82
2023-03-22T09:21:08.511Z,21.38
2023-03-22T09:23:37.902Z,22.55
2023-03-22T09:26:11.588Z,24.07
2023-03-22T09:28:39.345Z,25.37
2023-03-22T09:31:10.394Z,25.29
2023-03-22T09:33:41.432Z,23.56
2023-03-22T09:36:12.079Z,22.44
2023-03-22T09:38:41.340Z,21.65
2023-03-22T09:41:15.917Z,21.10
2023-03-22T09:43:47.729Z,20.43
2023-03-22T09:46:18.803Z,20.47
2023-03-22T09:48:49.450Z,20.76
2023-03-22T09:51:30.150Z,20.24
2023-03-22T09:53:58.376Z,19.50
2023-03-22T09:56:29.080Z,19.85
2023-03-22T09:59:05.668Z,20.86
2023-03-22T10:01:44.425Z,22.39
2023-03-22T10:04:32.562Z,23.77
2023-03-22T10:07:11.233Z,23.56
2023-03-22T10:09:50.618Z,23.47
2023-03-22T10:12:26.272Z,25.30
2023-03-22T10:15:04.643Z,27.34
2023-03-22T10:17:33.139Z,27.79
2023-03-22T10:20:06.223Z,28.49
2023-03-22T10:22:39.714Z,29.92
2023-03-22T10:25:09.429Z,31.06
2023-03-22T10:27:38.543Z,33.38
2023-03-22T10:30:19.451Z,34.47
2023-03-22T10:32:57.850Z,34.61
2023-03-22T10:35:26.234Z,33.85
2023-03-22T10:37:58.741Z,33.09
2023-03-22T10:40:29.975Z,32.48
2023-03-22T10:43:03.465Z,32.83
2023-03-22T10:45:47.301Z,31.28
2023-03-22T10:48:23.892Z,30.38
2023-03-22T10:50:55.685Z,30.84
2023-03-22T10:53:34.213Z,29.86
2023-03-22T10:56:02.030Z,29.96
2023-03-22T10:58:31.769Z,29.28
2023-03-22T11:01:01.432Z,27.08
2023-03-22T11:03:32.093Z,26.28
2023-03-22T11:06:06.662Z,25.29
2023-03-22T11:08:42.765Z,24.01
2023-03-22T11:11:17.869Z,23.85
2023-03-22T11:13:52.236Z,25.88
2023-03-22T11:16:20.303Z,27.44
2023-03-22T11:18:48.432Z,29.10
2023-03-22T11:21:17.996Z,29.97
2023-03-22T11:23:55.041Z,31.86
2023-03-22T11:26:35.739Z,33.67
2023-03-22T11:29:12.935Z,34.55
2023-03-22T11:31:55.808Z,35.06
2023-03-22T11:34:27.138Z,32.79
2023-03-22T11:36:58.166Z,33.05
2023-03-22T11:39:29.311Z,33.55
2023-03-22T11:42:03.901Z,34.75
2023-03-22T11:44:37.975Z,34.72
2023-03-22T11:47:09.038Z,34.71
2023-03-22T11:49:43.829Z,33.72
2023-03-22T11:52:17.324Z,33.34
2023-03-22T11:54:48.983Z,32.76
2023-03-22T11:57:20.422Z,32.70
2023-03-22T11:59:54.031Z,32.21
2023-03-22T12:02:26.640Z,31.20
2023-03-22T12:05:01.739Z,30.61
2023-03-22T12:07:31.869Z,30.74
2023-03-22T12:10:06.450Z,30.67
2023-03-22T12:12:38.423Z,30.10
2023-03-22T12:15:09.393Z,29.68
2023-03-22T12:17:42.629Z,28.39
2023-03-22T12:20:19.477Z,27.76
2023-03-22T12:22:52.728Z,27.16
2023-03-22T12:25:28.383Z,27.58
2023-03-22T12:27:59.343Z,28.21
2023-03-22T12:30:28.719Z,28.83
2023-03-22T12:33:02.727Z,28.72
2023-03-22T12:35:34.383Z,27.51
2023-03-22T12:38:10.282Z,26.27
2023-03-22T12:40:42.348Z,25.34
2023-03-22T12:43:17.927Z,24.85
2023-03-22T12:45:50.047Z,24.41
2023-03-22T12:48:21.750Z,23.80
2023-03-22T12:50:53.948Z,23.10
2023-03-22T12:53:23.897Z,22.46
2023-03-22T12:55:54.775Z,22.29
2023-03-22T12:58:24.861Z,21.95
2023-03-22T13:00:57.971Z,21.88
2023-03-22T13:03:28.795Z,21.51
2023-03-22T13:06:08.741Z,21.57
2023-03-22T13:09:15.923Z,21.45
2023-03-22T13:11:46.679Z,21.54
2023-03-22T13:14:56.092Z,21.57
2023-03-22T13:17:42.906Z,21.74
2023-03-22T13:20:30.886Z,21.84
2023-03-22T13:23:11.896Z,21.70
2023-03-22T13:25:44.707Z,21.79
2023-03-22T13:28:27.089Z,21.71
2023-03-22T13:30:56.764Z,21.72
2023-03-22T13:33:28.698Z,21.66
2023-03-22T13:35:59.063Z,21.60
2023-03-22T13:38:29.650Z,21.67
2023-03-22T13:41:02.740Z,21.72
2023-03-22T13:43:34.236Z,21.54
2023-03-22T13:46:44.094Z,21.63
2023-03-22T13:49:47.681Z,21.25
2023-03-22T13:52:27.025Z,21.11
2023-03-22T13:54:58.382Z,20.96
2023-03-22T13:57:49.182Z,20.91
2023-03-22T14:00:36.063Z,20.90
2023-03-22T14:03:12.769Z,20.91
2023-03-22T14:05:40.998Z,20.83
2023-03-22T14:08:20.622Z,20.72
2023-03-22T14:10:53.716Z,20.78
2023-03-22T14:13:30.657Z,20.52
2023-03-22T14:16:07.638Z,20.47
2023-03-22T14:18:41.007Z,20.47
2023-03-22T14:21:14.167Z,20.37
